Time;durP1;ratioP1;P1;durP2;ratioP2;P2;SDS_P1;SDS_P2;PMS_P1;PMS_P2;Temp;Humidity;BMP_temperature;BMP_pressure;BME280_temperature;BME280_humidity;BME280_pressure;Samples;Min_cycle;Max_cycle;Signal;HPM_P1;HPM_P2
2021/03/27 00:00:44;;;;;;;70.70;45.22;;;9.00;99.90;;;;;;5048569;28;21016;-84
2021/03/27 00:03:16;;;;;;;67.00;41.20;;;9.00;99.90;;;;;;5045415;28;20214;-84
2021/03/27 00:05:48;;;;;;;67.60;43.30;;;9.00;99.90;;;;;;5043065;28;20544;-83
2021/03/27 00:08:18;;;;;;;63.63;43.07;;;9.10;99.90;;;;;;5044057;28;20426;-84
2021/03/27 00:10:55;;;;;;;67.00;45.77;;;8.90;99.90;;;;;;5044794;28;20434;-84
2021/03/27 00:13:30;;;;;;;64.07;43.73;;;8.90;99.90;;;;;;5045745;28;20401;-85
2021/03/27 00:16:08;;;;;;;69.83;47.37;;;8.80;99.90;;;;;;5048422;28;20401;-84
2021/03/27 00:18:51;;;;;;;69.13;45.20;;;8.60;99.90;;;;;;5050307;28;20450;-88
2021/03/27 00:21:28;;;;;;;71.63;44.83;;;8.50;99.90;;;;;;5050457;28;20437;-84
2021/03/27 00:23:59;;;;;;;75.00;44.67;;;8.50;99.90;;;;;;5051262;28;20434;-84
2021/03/27 00:26:32;;;;;;;65.10;41.55;;;8.60;99.90;;;;;;5054982;28;20188;-83
2021/03/27 00:29:07;;;;;;;71.30;44.10;;;8.60;99.90;;;;;;5055449;28;20238;-83
2021/03/27 00:31:39;;;;;;;68.68;42.47;;;8.70;99.90;;;;;;5053735;28;20401;-84
2021/03/27 00:34:09;;;;;;;70.67;42.27;;;8.70;99.90;;;;;;5056036;28;20184;-83
2021/03/27 00:36:38;;;;;;;66.65;43.88;;;8.70;99.90;;;;;;5054558;28;20430;-82
2021/03/27 00:39:10;;;;;;;65.87;40.43;;;8.70;99.90;;;;;;5052831;28;20232;-84
2021/03/27 00:41:41;;;;;;;64.20;42.67;;;8.70;99.90;;;;;;5052762;28;20470;-83
2021/03/27 00:44:12;;;;;;;61.27;40.27;;;8.70;99.90;;;;;;5053441;28;20410;-83
2021/03/27 00:46:40;;;;;;;59.10;39.23;;;8.70;99.90;;;;;;5054141;28;20416;-84
2021/03/27 00:49:11;;;;;;;58.33;38.90;;;8.70;99.90;;;;;;5050807;28;20445;-84
2021/03/27 00:51:42;;;;;;;59.70;40.37;;;8.70;99.90;;;;;;5051841;28;20464;-84
2021/03/27 00:54:15;;;;;;;59.83;41.47;;;8.70;99.90;;;;;;5049876;28;20477;-83
2021/03/27 00:56:49;;;;;;;64.27;41.67;;;8.70;99.90;;;;;;5049696;28;20412;-83
2021/03/27 00:59:20;;;;;;;56.00;39.08;;;8.80;99.90;;;;;;5048614;28;20444;-85
2021/03/27 01:01:48;;;;;;;63.00;39.97;;;8.80;99.90;;;;;;5050248;28;20215;-85
2021/03/27 01:04:18;;;;;;;56.58;40.40;;;8.80;99.90;;;;;;5049144;28;20431;-84
2021/03/27 01:06:50;;;;;;;66.60;40.10;;;8.80;99.90;;;;;;5049335;28;20593;-84
2021/03/27 01:09:22;;;;;;;54.57;37.80;;;8.80;99.90;;;;;;5050129;28;20525;-84
2021/03/27 01:11:55;;;;;;;55.27;38.03;;;8.90;99.90;;;;;;5051233;28;20408;-83
2021/03/27 01:14:26;;;;;;;57.20;38.53;;;8.90;99.90;;;;;;5049514;28;20445;-84
2021/03/27 01:16:56;;;;;;;57.83;38.07;;;8.80;99.90;;;;;;5050183;28;20919;-84
2021/03/27 01:19:27;;;;;;;57.85;38.40;;;8.80;99.90;;;;;;5049711;28;20495;-84
2021/03/27 01:21:56;;;;;;;61.43;38.00;;;8.80;99.90;;;;;;5048914;28;20318;-84
2021/03/27 01:24:26;;;;;;;53.43;36.80;;;8.70;99.90;;;;;;5047750;28;20918;-84
2021/03/27 01:26:56;;;;;;;56.83;37.83;;;8.70;99.90;;;;;;5047678;28;20413;-84
2021/03/27 01:29:27;;;;;;;55.30;38.67;;;8.60;99.90;;;;;;5048243;28;20460;-84
2021/03/27 01:31:56;;;;;;;59.00;38.33;;;8.80;99.90;;;;;;5047686;28;20435;-84
2021/03/27 01:34:29;;;;;;;58.88;36.75;;;8.60;99.90;;;;;;5048120;28;20208;-84
2021/03/27 01:37:02;;;;;;;59.63;37.55;;;8.60;99.90;;;;;;5048057;28;20716;-84
2021/03/27 01:39:34;;;;;;;59.40;38.13;;;8.50;99.90;;;;;;5068358;23;20232;-79
2021/03/27 01:42:09;;;;;;;55.53;37.20;;;8.50;99.90;;;;;;5041391;28;20446;-81
2021/03/27 01:44:58;;;;;;;53.83;36.17;;;8.50;99.90;;;;;;5038831;28;20195;-79
2021/03/27 01:47:32;;;;;;;57.42;37.40;;;8.40;99.90;;;;;;5039507;28;20188;-80
2021/03/27 01:50:12;;;;;;;56.53;37.92;;;8.40;99.90;;;;;;5039082;28;20219;-81
2021/03/27 01:52:49;;;;;;;59.47;37.80;;;8.40;99.90;;;;;;5039873;28;20188;-80
2021/03/27 01:55:32;;;;;;;63.93;38.40;;;8.40;99.90;;;;;;5038966;28;20405;-80
2021/03/27 01:58:05;;;;;;;61.50;35.35;;;8.30;99.90;;;;;;5038397;28;20426;-81
2021/03/27 02:00:35;;;;;;;63.33;37.23;;;8.30;99.90;;;;;;5038240;28;20250;-81
2021/03/27 02:03:07;;;;;;;60.53;36.43;;;8.30;99.90;;;;;;5040089;28;20463;-80
2021/03/27 02:05:36;;;;;;;52.05;35.25;;;8.20;99.90;;;;;;5040141;28;20446;-80
2021/03/27 02:08:10;;;;;;;49.65;31.80;;;8.20;99.90;;;;;;5040785;28;20208;-81
2021/03/27 02:10:43;;;;;;;47.70;32.37;;;8.20;99.90;;;;;;5048477;28;20224;-78
2021/03/27 02:13:18;;;;;;;51.17;33.77;;;8.30;99.90;;;;;;5050575;28;20454;-81
2021/03/27 02:15:53;;;;;;;47.33;31.90;;;8.30;99.90;;;;;;5047827;28;20534;-81
2021/03/27 02:18:27;;;;;;;49.33;34.60;;;8.20;99.90;;;;;;5042393;28;20488;-81
2021/03/27 02:21:35;;;;;;;49.97;32.37;;;8.30;99.90;;;;;;5040331;28;21034;-82
2021/03/27 02:24:10;;;;;;;52.15;33.75;;;8.30;99.90;;;;;;5040077;28;20447;-80
2021/03/27 02:26:53;;;;;;;52.42;32.22;;;8.20;99.90;;;;;;5038568;28;20188;-80
2021/03/27 02:29:51;;;;;;;46.60;31.30;;;8.20;99.90;;;;;;5041918;28;20234;-80
2021/03/27 02:32:23;;;;;;;51.08;33.05;;;8.00;99.90;;;;;;5053700;28;20199;-80
2021/03/27 02:34:55;;;;;;;50.90;32.03;;;8.20;99.90;;;;;;5041145;28;20199;-81
2021/03/27 02:37:28;;;;;;;46.65;32.65;;;8.20;99.90;;;;;;5039781;28;20199;-81
2021/03/27 02:40:00;;;;;;;55.95;32.05;;;8.20;99.90;;;;;;5038843;28;20243;-79
2021/03/27 02:42:38;;;;;;;50.33;31.45;;;8.00;99.90;;;;;;5039216;28;20214;-80
2021/03/27 02:45:11;;;;;;;49.97;29.70;;;8.30;99.90;;;;;;5042198;28;20188;-80
2021/03/27 02:47:44;;;;;;;48.85;31.05;;;8.30;99.90;;;;;;5040882;28;20188;-79
2021/03/27 02:50:36;;;;;;;49.37;29.03;;;8.30;99.90;;;;;;5040316;28;20276;-81
2021/03/27 02:53:16;;;;;;;40.20;28.57;;;8.20;99.90;;;;;;5051757;28;20418;-79
2021/03/27 02:55:51;;;;;;;41.63;28.07;;;8.30;99.90;;;;;;5055362;28;20440;-78
2021/03/27 02:58:23;;;;;;;43.28;29.88;;;8.40;99.90;;;;;;5053901;28;20829;-78
2021/03/27 03:01:00;;;;;;;47.78;30.23;;;8.40;99.90;;;;;;5054627;28;20172;-78
2021/03/27 03:03:35;;;;;;;44.37;29.83;;;8.40;99.90;;;;;;5053495;28;20215;-79
2021/03/27 03:06:14;;;;;;;48.73;32.53;;;8.20;99.90;;;;;;5052659;28;20435;-78
2021/03/27 03:08:47;;;;;;;48.33;30.10;;;8.30;99.90;;;;;;5052467;28;20549;-78
2021/03/27 03:11:17;;;;;;;48.83;30.27;;;8.30;99.90;;;;;;5048968;28;20437;-76
2021/03/27 03:13:51;;;;;;;45.27;29.60;;;8.40;99.90;;;;;;5048744;28;20823;-79
2021/03/27 03:16:27;;;;;;;42.33;29.10;;;8.30;99.90;;;;;;5052114;28;20936;-79
2021/03/27 03:19:01;;;;;;;45.50;28.93;;;8.40;99.90;;;;;;5049343;28;20500;-78
2021/03/27 03:21:31;;;;;;;41.87;29.30;;;8.40;99.90;;;;;;5046308;28;20473;-80
2021/03/27 03:24:06;;;;;;;44.80;29.97;;;8.40;99.90;;;;;;5038509;28;20810;-80
2021/03/27 03:26:38;;;;;;;43.53;29.53;;;8.30;99.90;;;;;;5038116;28;20434;-79
2021/03/27 03:29:16;;;;;;;47.53;31.37;;;8.40;99.90;;;;;;5038075;28;20497;-79
2021/03/27 03:31:58;;;;;;;40.97;28.98;;;8.40;99.90;;;;;;5038034;28;20396;-80
2021/03/27 03:34:52;;;;;;;45.73;29.80;;;8.30;99.90;;;;;;5037890;28;20188;-80
2021/03/27 03:37:24;;;;;;;42.23;27.77;;;8.40;99.90;;;;;;5039178;28;20421;-80
2021/03/27 03:40:17;;;;;;;42.22;28.80;;;8.40;99.90;;;;;;5036824;28;20456;-79
2021/03/27 03:43:12;;;;;;;44.73;29.63;;;8.40;99.90;;;;;;5031111;28;20314;-80
2021/03/27 03:45:54;;;;;;;45.80;28.95;;;8.30;99.90;;;;;;5036376;28;20413;-80
2021/03/27 03:48:43;;;;;;;45.55;29.17;;;8.40;99.90;;;;;;5037122;28;20184;-80
2021/03/27 03:51:16;;;;;;;41.30;28.17;;;8.40;99.90;;;;;;5040482;28;20184;-79
2021/03/27 03:53:51;;;;;;;44.08;30.27;;;8.40;99.90;;;;;;5048858;28;20423;-79
2021/03/27 03:56:25;;;;;;;45.73;30.80;;;8.40;99.90;;;;;;5050306;28;20187;-79
2021/03/27 03:59:16;;;;;;;42.00;27.60;;;8.40;99.90;;;;;;5052998;28;20461;-79
2021/03/27 04:01:48;;;;;;;41.07;29.13;;;8.50;99.90;;;;;;5054398;28;20457;-78
2021/03/27 04:04:21;;;;;;;42.57;27.40;;;8.50;99.90;;;;;;5054054;28;20427;-77
2021/03/27 04:06:52;;;;;;;42.22;27.80;;;8.50;99.90;;;;;;5053539;28;20461;-78
2021/03/27 04:09:22;;;;;;;41.10;29.13;;;8.60;99.90;;;;;;5052798;28;20228;-78
2021/03/27 04:11:58;;;;;;;41.28;28.02;;;8.60;99.90;;;;;;5053427;28;20497;-78
2021/03/27 04:14:41;;;;;;;37.83;27.00;;;8.60;99.90;;;;;;5053365;28;20188;-78
2021/03/27 04:17:12;;;;;;;43.83;28.73;;;8.60;99.90;;;;;;5052755;28;20484;-78
2021/03/27 04:19:43;;;;;;;51.35;30.75;;;8.60;99.90;;;;;;5054623;28;20457;-78
2021/03/27 04:22:13;;;;;;;41.37;29.50;;;8.60;99.90;;;;;;5056258;28;20204;-78
2021/03/27 04:24:54;;;;;;;39.33;27.33;;;8.60;99.90;;;;;;5054742;28;20417;-79
2021/03/27 04:27:27;;;;;;;38.13;27.60;;;8.50;99.90;;;;;;5052489;28;20430;-79
2021/03/27 04:30:08;;;;;;;39.20;27.10;;;8.40;99.90;;;;;;5053004;28;20474;-79
2021/03/27 04:32:55;;;;;;;43.28;29.30;;;8.40;99.90;;;;;;5048554;28;20426;-80
2021/03/27 04:35:28;;;;;;;44.57;26.47;;;8.40;99.90;;;;;;5055517;28;20196;-78
2021/03/27 04:38:08;;;;;;;45.50;27.45;;;8.40;99.90;;;;;;5052669;28;20444;-80
2021/03/27 04:40:39;;;;;;;42.17;28.75;;;8.50;99.90;;;;;;5044497;28;20239;-79
2021/03/27 04:43:12;;;;;;;43.80;27.50;;;8.50;99.90;;;;;;5042305;28;20191;-79
2021/03/27 04:45:44;;;;;;;39.30;29.20;;;8.40;99.90;;;;;;5043725;28;20426;-80
2021/03/27 04:48:21;;;;;;;41.93;28.37;;;8.40;99.90;;;;;;5044440;28;20542;-80
2021/03/27 04:51:26;;;;;;;43.47;28.02;;;8.40;99.90;;;;;;5044765;28;20439;-80
2021/03/27 04:53:57;;;;;;;39.22;26.73;;;8.50;99.90;;;;;;5048011;28;20647;-79
2021/03/27 04:56:33;;;;;;;36.73;25.70;;;8.40;99.90;;;;;;5050894;28;20195;-81
2021/03/27 04:59:05;;;;;;;43.03;26.33;;;8.40;99.90;;;;;;5050869;28;20470;-79
2021/03/27 05:01:48;;;;;;;37.88;26.83;;;8.40;99.90;;;;;;5056733;28;20433;-79
2021/03/27 05:04:19;;;;;;;38.35;26.70;;;8.40;99.90;;;;;;5053944;28;20203;-79
2021/03/27 05:06:50;;;;;;;40.92;25.83;;;8.40;99.90;;;;;;5053506;28;20188;-78
2021/03/27 05:09:30;;;;;;;51.97;24.92;;;8.30;99.90;;;;;;5046820;28;20228;-79
2021/03/27 05:12:00;;;;;;;39.10;25.80;;;8.30;99.90;;;;;;5041722;28;20194;-79
2021/03/27 05:14:58;;;;;;;41.13;24.95;;;8.30;99.90;;;;;;5039543;28;20420;-79
2021/03/27 05:17:46;;;;;;;33.93;23.67;;;8.30;99.90;;;;;;5012735;28;20192;-77
2021/03/27 05:20:17;;;;;;;34.60;23.90;;;8.40;99.90;;;;;;5054736;28;20952;-79
2021/03/27 05:22:56;;;;;;;39.23;25.13;;;8.50;99.90;;;;;;5038324;28;20466;-78
2021/03/27 05:25:37;;;;;;;38.20;24.33;;;8.60;99.90;;;;;;5037892;28;20405;-77
2021/03/27 05:28:17;;;;;;;29.87;22.13;;;8.60;99.90;;;;;;5037476;28;20389;-78
2021/03/27 05:30:54;;;;;;;35.88;23.63;;;8.70;99.90;;;;;;5036559;28;20420;-78
2021/03/27 05:33:32;;;;;;;31.25;22.73;;;8.80;99.90;;;;;;5037320;28;20857;-77
2021/03/27 05:36:17;;;;;;;35.88;24.10;;;8.80;99.90;;;;;;5057102;28;20171;-79
2021/03/27 05:38:52;;;;;;;31.60;22.17;;;8.90;99.90;;;;;;5058016;28;20227;-80
2021/03/27 05:42:03;;;;;;;28.07;22.23;;;9.00;99.90;;;;;;5043758;28;20491;-79
2021/03/27 05:45:14;;;;;;;32.60;21.63;;;9.00;99.90;;;;;;4995057;28;20433;-80
2021/03/27 05:48:25;;;;;;;30.30;21.70;;;9.10;99.90;;;;;;5039581;28;20485;-79
2021/03/27 05:51:20;;;;;;;30.23;21.00;;;9.20;99.90;;;;;;5037832;28;20423;-78
2021/03/27 05:54:02;;;;;;;30.03;21.47;;;9.30;99.90;;;;;;5040430;28;20421;-80
2021/03/27 05:57:06;;;;;;;30.40;20.60;;;9.40;99.90;;;;;;5037112;28;20944;-80
2021/03/27 05:59:54;;;;;;;29.27;21.40;;;9.40;99.90;;;;;;5037249;28;20424;-80
2021/03/27 06:02:40;;;;;;;29.02;22.52;;;9.50;99.90;;;;;;5037942;28;20796;-80
2021/03/27 06:05:29;;;;;;;25.77;20.20;;;9.50;99.90;;;;;;5049765;28;20204;-80
2021/03/27 06:08:35;;;;;;;23.33;19.17;;;9.50;99.90;;;;;;5039354;28;20409;-80
2021/03/27 06:11:35;;;;;;;26.73;20.17;;;9.60;99.90;;;;;;4958720;29;20409;-80
2021/03/27 06:14:25;;;;;;;27.10;19.20;;;9.60;99.90;;;;;;4957671;29;20436;-79
2021/03/27 06:17:18;;;;;;;31.20;19.17;;;9.70;99.90;;;;;;5027147;28;20446;-80
2021/03/27 06:19:55;;;;;;;28.50;20.27;;;9.70;99.90;;;;;;5037617;28;20441;-80
2021/03/27 06:22:38;;;;;;;26.80;19.70;;;9.80;99.90;;;;;;5038392;28;20517;-80
2021/03/27 06:25:31;;;;;;;27.93;19.50;;;9.70;99.90;;;;;;5039505;28;20416;-80
2021/03/27 06:28:20;;;;;;;25.70;18.70;;;9.80;99.90;;;;;;5037854;28;20430;-79
2021/03/27 06:31:02;;;;;;;24.20;18.10;;;9.80;99.90;;;;;;5024403;28;20938;-78
2021/03/27 06:33:48;;;;;;;30.40;20.77;;;9.80;99.90;;;;;;5036488;28;20437;-80
2021/03/27 06:36:47;;;;;;;33.40;18.77;;;9.70;99.90;;;;;;5036442;28;20496;-81
2021/03/27 06:39:46;;;;;;;24.40;19.20;;;9.80;99.90;;;;;;5036693;28;20470;-81
2021/03/27 06:42:56;;;;;;;24.13;17.60;;;9.80;99.90;;;;;;5035920;28;20887;-80
2021/03/27 06:45:51;;;;;;;24.97;17.87;;;9.90;99.90;;;;;;5036433;28;20475;-81
2021/03/27 06:48:58;;;;;;;23.43;18.10;;;10.10;99.90;;;;;;5039521;28;20394;-80
2021/03/27 06:51:40;;;;;;;26.77;19.20;;;10.30;99.90;;;;;;5012497;28;20438;-81
2021/03/27 06:54:22;;;;;;;23.53;17.40;;;10.50;99.90;;;;;;5039713;28;20435;-81
2021/03/27 06:57:01;;;;;;;24.07;16.80;;;10.70;99.90;;;;;;5041972;28;20434;-81
2021/03/27 07:00:07;;;;;;;25.20;17.57;;;10.70;99.90;;;;;;5044774;28;20452;-79
2021/03/27 07:03:31;;;;;;;24.40;17.30;;;10.80;99.90;;;;;;5049418;28;20974;-79
2021/03/27 07:06:37;;;;;;;19.47;16.17;;;10.80;99.90;;;;;;5044560;28;20409;-78
2021/03/27 07:09:48;;;;;;;20.60;16.50;;;10.70;99.90;;;;;;5052871;28;20436;-77
2021/03/27 07:12:25;;;;;;;23.33;17.10;;;10.90;99.90;;;;;;5050148;28;20409;-80
2021/03/27 07:15:18;;;;;;;22.90;16.20;;;11.10;99.90;;;;;;5046519;28;20417;-80
2021/03/27 07:18:02;;;;;;;20.33;15.30;;;11.20;99.90;;;;;;5047550;28;20426;-80
2021/03/27 07:20:40;;;;;;;19.57;16.00;;;11.10;99.90;;;;;;5048502;28;20496;-79
2021/03/27 07:23:40;;;;;;;22.00;16.80;;;11.10;99.90;;;;;;5049576;28;20505;-81
2021/03/27 07:26:44;;;;;;;25.03;17.90;;;10.70;99.90;;;;;;5036416;28;20450;-80
2021/03/27 07:29:57;;;;;;;25.10;17.00;;;10.20;99.90;;;;;;5041940;28;20468;-80
2021/03/27 07:32:38;;;;;;;21.00;15.90;;;10.10;99.90;;;;;;5038924;28;20434;-80
2021/03/27 07:35:28;;;;;;;21.70;17.40;;;9.60;99.90;;;;;;5038825;28;20835;-79
2021/03/27 07:38:25;;;;;;;23.83;17.50;;;9.60;99.90;;;;;;5039027;28;20429;-80
2021/03/27 07:41:00;;;;;;;24.00;18.13;;;9.40;99.90;;;;;;5078273;23;20490;-84
2021/03/27 07:43:52;;;;;;;23.87;17.03;;;9.40;99.90;;;;;;5074019;28;20908;-83
2021/03/27 07:46:27;;;;;;;23.53;16.10;;;9.30;99.90;;;;;;5065273;28;20432;-83
2021/03/27 07:49:07;;;;;;;19.90;15.17;;;9.30;99.90;;;;;;5069697;28;20404;-84
2021/03/27 07:52:00;;;;;;;17.83;12.60;;;9.20;99.90;;;;;;5074420;28;20425;-84
2021/03/27 07:55:33;;;;;;;20.70;15.13;;;9.20;99.90;;;;;;5069642;28;20450;-84
2021/03/27 07:58:18;;;;;;;19.33;16.03;;;9.30;99.90;;;;;;5053499;28;20473;-84
2021/03/27 08:00:53;;;;;;;20.63;14.20;;;9.30;99.90;;;;;;5077667;28;20463;-84
2021/03/27 08:04:05;;;;;;;18.73;13.60;;;9.30;99.90;;;;;;5076122;28;20493;-84
2021/03/27 08:06:45;;;;;;;22.60;16.20;;;9.30;99.90;;;;;;5016784;28;20423;-84
2021/03/27 08:09:31;;;;;;;19.07;15.13;;;9.20;99.90;;;;;;5068456;28;20469;-84
2021/03/27 08:12:24;;;;;;;21.93;15.57;;;9.20;99.90;;;;;;5067759;28;20438;-84
2021/03/27 08:15:42;;;;;;;12.40;7.17;;;9.20;99.90;;;;;;5066971;28;21001;-84
2021/03/27 08:18:56;;;;;;;5.10;4.60;;;8.90;99.90;;;;;;5072333;28;20434;-84
2021/03/27 08:21:30;;;;;;;3.13;2.83;;;8.60;99.90;;;;;;5077709;28;20458;-84
2021/03/27 08:24:24;;;;;;;2.50;2.30;;;8.20;99.90;;;;;;5074337;28;20657;-85
2021/03/27 08:27:13;;;;;;;3.10;2.30;;;8.60;99.90;;;;;;5080664;28;20187;-84
2021/03/27 08:30:15;;;;;;;2.40;1.60;;;8.30;99.90;;;;;;5078957;28;20476;-83
2021/03/27 08:33:06;;;;;;;1.45;1.00;;;8.20;99.90;;;;;;5037868;28;20215;-84
2021/03/27 08:36:01;;;;;;;1.50;1.30;;;8.20;99.90;;;;;;5071355;28;20202;-84
2021/03/27 08:38:37;;;;;;;1.05;0.93;;;7.90;99.90;;;;;;5074939;28;20309;-85
2021/03/27 08:41:30;;;;;;;1.00;1.00;;;7.90;99.90;;;;;;5071730;28;20234;-85
2021/03/27 08:44:37;;;;;;;0.90;0.90;;;7.80;99.90;;;;;;5072549;28;20191;-84
2021/03/27 08:47:26;;;;;;;1.02;0.95;;;7.80;99.90;;;;;;5048356;28;20222;-85
2021/03/27 08:50:51;;;;;;;1.27;1.17;;;7.60;99.90;;;;;;5068729;28;20226;-84
2021/03/27 08:53:51;;;;;;;1.35;1.25;;;7.50;99.90;;;;;;4992461;28;20194;-83
2021/03/27 08:57:08;;;;;;;1.30;1.20;;;7.20;99.90;;;;;;5072833;28;20214;-84
2021/03/27 09:00:02;;;;;;;1.60;1.30;;;7.10;99.90;;;;;;5047380;28;20219;-84
2021/03/27 09:03:13;;;;;;;1.50;1.40;;;7.00;99.90;;;;;;5069394;28;20211;-85
2021/03/27 09:06:11;;;;;;;1.80;1.70;;;6.90;99.90;;;;;;5069283;28;20211;-84
2021/03/27 09:08:43;;;;;;;1.70;1.60;;;6.90;99.90;;;;;;5072063;28;20191;-85
2021/03/27 09:11:40;;;;;;;3.15;1.98;;;7.60;99.90;;;;;;5073368;28;20286;-84
2021/03/27 09:14:43;;;;;;;2.08;1.85;;;6.90;99.90;;;;;;5074652;28;20246;-85
2021/03/27 09:17:46;;;;;;;2.30;2.03;;;6.60;99.90;;;;;;5069467;28;20207;-85
2021/03/27 09:20:33;;;;;;;1.88;1.50;;;6.70;99.90;;;;;;5004716;28;20303;-85
2021/03/27 09:23:12;;;;;;;2.65;2.45;;;6.50;99.90;;;;;;5071194;28;20269;-83
2021/03/27 09:26:15;;;;;;;4.75;2.10;;;6.70;99.90;;;;;;5075722;28;20242;-83
2021/03/27 09:28:51;;;;;;;2.85;2.55;;;6.80;99.90;;;;;;5076119;28;20235;-84
2021/03/27 09:31:44;;;;;;;2.85;2.42;;;6.80;99.90;;;;;;5072120;28;20202;-83
2021/03/27 09:34:20;;;;;;;2.85;2.65;;;6.80;99.90;;;;;;5062448;28;20284;-84
2021/03/27 09:36:52;;;;;;;3.00;2.22;;;6.80;99.90;;;;;;5068009;28;20191;-84
2021/03/27 09:39:25;;;;;;;3.42;3.13;;;6.90;99.90;;;;;;5067703;28;20210;-84
2021/03/27 09:42:10;;;;;;;2.10;1.80;;;6.80;99.90;;;;;;5074800;28;20211;-83
2021/03/27 09:45:09;;;;;;;2.20;2.10;;;7.10;99.90;;;;;;5072594;28;20187;-84
2021/03/27 09:48:05;;;;;;;2.53;2.33;;;6.90;99.90;;;;;;5074684;28;20192;-84
2021/03/27 09:50:38;;;;;;;2.28;2.10;;;7.00;99.90;;;;;;5074418;28;20238;-83
2021/03/27 09:53:18;;;;;;;4.53;2.55;;;7.20;99.90;;;;;;5074594;28;20237;-84
2021/03/27 09:56:00;;;;;;;2.80;2.58;;;7.40;99.90;;;;;;5074349;28;20215;-84
2021/03/27 09:58:39;;;;;;;2.95;2.15;;;7.80;99.90;;;;;;5073101;28;20250;-84
2021/03/27 10:01:26;;;;;;;2.53;2.33;;;7.90;99.90;;;;;;5069187;28;20256;-84
2021/03/27 10:04:13;;;;;;;2.35;2.20;;;7.60;99.90;;;;;;5069319;28;20207;-84
2021/03/27 10:07:12;;;;;;;3.40;2.47;;;7.70;99.90;;;;;;5069044;28;20279;-84
2021/03/27 10:10:05;;;;;;;3.22;2.90;;;7.50;99.90;;;;;;5066482;28;20287;-84
2021/03/27 10:12:41;;;;;;;3.42;3.13;;;7.50;99.90;;;;;;5064010;28;20187;-84
2021/03/27 10:15:17;;;;;;;3.00;2.63;;;7.50;99.90;;;;;;5063882;28;20190;-84
2021/03/27 10:17:53;;;;;;;10.43;3.55;;;7.60;99.90;;;;;;5062694;28;20660;-84
2021/03/27 10:20:32;;;;;;;5.68;4.43;;;8.40;99.90;;;;;;5064933;28;20227;-84
2021/03/27 10:23:03;;;;;;;3.40;3.10;;;8.00;99.90;;;;;;5066383;28;20207;-85
2021/03/27 10:25:34;;;;;;;6.20;3.65;;;8.00;99.90;;;;;;5073283;28;20190;-84
2021/03/27 10:28:13;;;;;;;6.43;4.07;;;7.90;99.90;;;;;;5070956;28;20221;-85
2021/03/27 10:30:51;;;;;;;3.95;3.65;;;7.90;99.90;;;;;;5069601;28;20297;-85
2021/03/27 10:33:21;;;;;;;3.60;3.30;;;7.90;99.90;;;;;;5063598;28;20194;-85
2021/03/27 10:36:09;;;;;;;4.15;3.75;;;8.30;99.90;;;;;;5065829;28;20226;-85
2021/03/27 10:39:09;;;;;;;4.35;3.65;;;8.20;99.90;;;;;;5063804;28;20222;-85
2021/03/27 10:41:58;;;;;;;4.18;3.78;;;8.50;99.90;;;;;;5062084;28;20245;-85
2021/03/27 10:44:37;;;;;;;5.35;4.65;;;8.80;99.90;;;;;;5066408;28;20187;-84
2021/03/27 10:47:09;;;;;;;5.50;3.85;;;8.80;99.90;;;;;;5069312;28;20184;-84
2021/03/27 10:49:48;;;;;;;5.07;4.40;;;8.70;99.90;;;;;;5073139;28;20221;-84
2021/03/27 10:52:42;;;;;;;3.90;3.22;;;9.10;99.90;;;;;;5073642;28;20441;-85
2021/03/27 10:55:36;;;;;;;3.97;3.67;;;9.10;99.90;;;;;;5074097;28;20190;-84
2021/03/27 10:58:26;;;;;;;4.10;3.70;;;9.10;99.90;;;;;;5072170;28;20491;-85
2021/03/27 11:01:06;;;;;;;4.70;3.70;;;9.00;99.90;;;;;;5071979;28;20283;-85
2021/03/27 11:04:04;;;;;;;4.83;4.03;;;9.00;99.90;;;;;;5069281;28;20448;-84
2021/03/27 11:07:11;;;;;;;3.43;3.17;;;9.00;99.90;;;;;;5060750;28;20424;-85
2021/03/27 11:10:07;;;;;;;11.47;3.03;;;8.80;99.90;;;;;;5060486;28;20443;-84
2021/03/27 11:13:03;;;;;;;3.63;2.80;;;8.60;99.90;;;;;;5062872;28;20420;-84
2021/03/27 11:15:43;;;;;;;5.00;4.50;;;8.50;99.90;;;;;;5065403;28;20444;-80
2021/03/27 11:18:46;;;;;;;3.35;2.97;;;8.60;99.90;;;;;;5064736;28;20405;-80
2021/03/27 11:21:26;;;;;;;3.20;2.70;;;8.40;99.90;;;;;;5072836;28;20191;-80
2021/03/27 11:24:15;;;;;;;4.30;3.57;;;8.80;99.90;;;;;;5067189;28;20422;-80
2021/03/27 11:27:10;;;;;;;3.40;3.10;;;9.00;99.90;;;;;;5065573;28;20393;-80
2021/03/27 11:29:41;;;;;;;6.37;3.73;;;9.10;99.90;;;;;;5070560;28;20436;-79
2021/03/27 11:32:19;;;;;;;4.33;3.97;;;9.20;99.90;;;;;;5065976;28;20432;-80
2021/03/27 11:34:53;;;;;;;4.57;4.00;;;9.30;99.90;;;;;;5064989;28;20442;-79
2021/03/27 11:37:42;;;;;;;4.23;3.83;;;9.50;99.90;;;;;;5068469;28;20417;-79
2021/03/27 11:40:28;;;;;;;3.50;3.20;;;9.50;99.90;;;;;;5064651;28;20499;-80
2021/03/27 11:43:21;;;;;;;4.43;3.73;;;9.60;99.90;;;;;;5061566;28;20496;-80
2021/03/27 11:45:50;;;;;;;4.90;3.17;;;9.70;99.90;;;;;;5060670;28;20428;-80
2021/03/27 11:48:20;;;;;;;4.77;3.63;;;9.80;99.90;;;;;;5060156;28;20503;-81
2021/03/27 11:50:51;;;;;;;6.90;3.23;;;9.70;99.90;;;;;;5059720;28;20465;-80
2021/03/27 11:53:39;;;;;;;4.17;3.77;;;9.60;99.90;;;;;;5060964;28;20451;-80
2021/03/27 11:56:12;;;;;;;6.83;4.30;;;9.60;99.90;;;;;;5060240;28;20430;-81
2021/03/27 12:01:39;;;;;;;4.40;2.97;;;9.80;99.90;;;;;;5061962;28;20408;-80
2021/03/27 12:04:15;;;;;;;5.60;3.53;;;10.10;99.90;;;;;;5064495;28;20491;-81
2021/03/27 12:06:58;;;;;;;3.80;3.50;;;10.10;99.90;;;;;;5059851;28;20437;-81
2021/03/27 12:09:38;;;;;;;6.73;3.47;;;10.20;99.90;;;;;;5059073;28;20469;-80
2021/03/27 12:12:25;;;;;;;6.53;3.70;;;10.20;99.90;;;;;;5059364;28;20395;-82
2021/03/27 12:14:57;;;;;;;5.90;4.87;;;10.30;99.90;;;;;;5059623;28;20408;-80
2021/03/27 12:17:35;;;;;;;7.43;3.60;;;10.30;99.90;;;;;;5058646;28;20464;-80
2021/03/27 12:20:24;;;;;;;5.30;3.90;;;10.40;99.90;;;;;;5059149;28;20448;-81
2021/03/27 12:22:57;;;;;;;5.60;4.53;;;10.50;99.90;;;;;;5058908;28;20477;-80
2021/03/27 12:25:39;;;;;;;3.33;3.03;;;10.70;99.90;;;;;;5059058;28;20409;-80
2021/03/27 12:28:14;;;;;;;7.80;4.20;;;10.80;99.90;;;;;;5058277;28;20462;-81
2021/03/27 12:30:48;;;;;;;6.30;4.07;;;10.90;99.90;;;;;;5059069;28;20991;-80
2021/03/27 12:33:21;;;;;;;4.50;3.83;;;11.00;99.90;;;;;;5060008;28;20401;-80
2021/03/27 12:35:52;;;;;;;6.20;3.50;;;11.00;99.90;;;;;;5058327;28;20453;-80
2021/03/27 12:38:30;;;;;;;5.43;3.37;;;11.10;99.90;;;;;;5058711;28;20443;-81
2021/03/27 12:41:07;;;;;;;4.87;3.97;;;11.50;99.90;;;;;;5060820;28;20472;-80
2021/03/27 12:43:43;;;;;;;3.23;2.93;;;12.20;99.90;;;;;;5063540;28;20860;-80
2021/03/27 12:46:25;;;;;;;3.30;3.10;;;11.70;99.90;;;;;;5064142;28;20444;-80
2021/03/27 12:49:11;;;;;;;5.47;3.20;;;11.80;99.90;;;;;;5074104;28;20405;-83
2021/03/27 12:51:44;;;;;;;3.97;3.20;;;11.80;99.90;;;;;;5076653;28;20441;-84
2021/03/27 12:54:29;;;;;;;4.67;2.60;;;12.10;99.90;;;;;;5077926;28;20433;-85
2021/03/27 12:57:11;;;;;;;6.00;2.97;;;12.10;99.90;;;;;;5075877;28;20456;-85
2021/03/27 12:59:52;;;;;;;5.53;2.73;;;12.10;99.90;;;;;;5069802;28;20473;-84
2021/03/27 13:03:05;;;;;;;7.80;4.80;;;11.70;99.90;;;;;;5068734;28;20439;-84
2021/03/27 13:05:36;;;;;;;9.63;2.37;;;10.90;99.90;;;;;;4994410;28;20425;-85
2021/03/27 13:08:16;;;;;;;3.20;2.33;;;10.20;99.90;;;;;;4992633;28;20468;-85
2021/03/27 13:11:01;;;;;;;6.43;3.00;;;9.10;99.90;;;;;;5047507;28;20437;-85
2021/03/27 13:14:01;;;;;;;2.93;2.50;;;8.70;99.90;;;;;;5074653;28;20429;-85
2021/03/27 13:16:37;;;;;;;2.25;2.15;;;8.30;99.90;;;;;;5067334;28;20444;-85
2021/03/27 13:19:14;;;;;;;2.45;2.30;;;8.20;99.90;;;;;;5066846;28;20262;-85
2021/03/27 13:22:04;;;;;;;2.25;2.15;;;8.20;99.90;;;;;;5064212;28;20191;-84
2021/03/27 13:25:06;;;;;;;2.05;1.85;;;8.20;99.90;;;;;;5064338;28;20187;-84
2021/03/27 13:27:44;;;;;;;3.55;2.78;;;8.30;99.90;;;;;;5063874;28;20229;-84
2021/03/27 13:30:19;;;;;;;2.60;2.40;;;8.40;99.90;;;;;;5063342;28;20223;-84
2021/03/27 13:32:56;;;;;;;3.10;2.00;;;8.70;99.90;;;;;;5062800;28;20530;-84
2021/03/27 13:35:31;;;;;;;2.90;2.10;;;9.10;99.90;;;;;;5062915;28;20966;-85
2021/03/27 13:38:04;;;;;;;2.77;2.10;;;8.70;99.90;;;;;;5061823;28;20441;-85
2021/03/27 13:40:33;;;;;;;3.25;2.90;;;8.50;99.90;;;;;;5083112;22;20492;-80
2021/03/27 13:43:10;;;;;;;5.45;2.53;;;8.50;99.90;;;;;;5059337;28;20233;-81
2021/03/27 13:45:44;;;;;;;6.03;3.40;;;8.50;99.90;;;;;;5059352;28;20235;-81
2021/03/27 13:48:43;;;;;;;3.97;2.10;;;8.40;99.90;;;;;;5059719;28;20304;-81
2021/03/27 13:51:18;;;;;;;5.80;2.70;;;8.30;99.90;;;;;;5058990;28;20222;-79
2021/03/27 13:53:50;;;;;;;2.33;2.05;;;8.40;99.90;;;;;;5061353;28;20434;-79
2021/03/27 13:56:34;;;;;;;2.75;2.30;;;8.40;99.90;;;;;;5061391;28;20218;-80
2021/03/27 13:59:26;;;;;;;4.85;2.00;;;8.50;99.90;;;;;;5059251;28;20245;-80
2021/03/27 14:02:30;;;;;;;1.80;1.70;;;8.20;99.90;;;;;;5058485;28;20278;-81
2021/03/27 14:05:06;;;;;;;2.30;1.57;;;8.30;99.90;;;;;;5066371;28;20203;-78